createdAt,value
2023-02-24T00:02:01.419Z,9.50
2023-02-24T00:04:31.347Z,8.80
2023-02-24T00:09:31.495Z,9.40
2023-02-24T00:12:02.527Z,9.50
2023-02-24T00:17:03.119Z,9.40
2023-02-24T00:19:33.865Z,9.40
2023-02-24T00:22:03.397Z,9.40
2023-02-24T00:24:32.525Z,9.40
2023-02-24T00:27:07.533Z,9.40
2023-02-24T00:29:37.696Z,9.40
2023-02-24T00:32:12.310Z,9.40
2023-02-24T00:42:12.543Z,9.40
2023-02-24T00:44:44.939Z,9.40
2023-02-24T00:47:17.244Z,9.40
2023-02-24T00:52:17.195Z,9.40
2023-02-24T00:59:47.457Z,9.30
2023-02-24T01:02:17.368Z,9.20
2023-02-24T01:12:32.320Z,9.20
2023-02-24T01:15:02.963Z,9.20
2023-02-24T01:17:32.720Z,9.20
2023-02-24T01:30:15.743Z,8.90
2023-02-24T01:32:47.201Z,9.00
2023-02-24T01:40:21.465Z,8.90
2023-02-24T01:45:28.603Z,8.80
2023-02-24T01:48:03.266Z,8.80
2023-02-24T01:53:06.535Z,8.70
2023-02-24T01:55:38.240Z,8.70
2023-02-24T01:58:15.493Z,8.70
2023-02-24T02:03:27.629Z,8.60
2023-02-24T02:06:01.745Z,8.60
2023-02-24T02:08:30.965Z,8.60
2023-02-24T02:11:06.553Z,8.60
2023-02-24T02:13:36.683Z,8.60
2023-02-24T02:16:27.963Z,8.60
2023-02-24T02:19:20.339Z,8.60
2023-02-24T02:22:23.868Z,8.60
2023-02-24T02:24:58.288Z,8.60
2023-02-24T02:28:31.499Z,8.60
2023-02-24T02:31:51.746Z,8.60
2023-02-24T02:34:34.968Z,8.60
2023-02-24T02:37:11.954Z,8.50
2023-02-24T02:39:52.543Z,8.60
2023-02-24T02:42:30.087Z,8.60
2023-02-24T02:45:08.457Z,8.60
2023-02-24T02:47:43.241Z,8.60
2023-02-24T02:50:19.710Z,8.60
2023-02-24T02:52:54.945Z,8.50
2023-02-24T02:55:34.800Z,8.60
2023-02-24T02:58:09.078Z,8.50
2023-02-24T03:00:49.983Z,8.50
2023-02-24T03:03:20.517Z,8.50
2023-02-24T03:05:57.329Z,8.50
2023-02-24T03:08:34.280Z,8.50
2023-02-24T03:11:05.587Z,8.50
2023-02-24T03:13:38.778Z,8.50
2023-02-24T03:16:11.485Z,8.50
2023-02-24T03:18:45.164Z,8.50
2023-02-24T03:21:25.403Z,8.50
2023-02-24T03:23:54.614Z,8.50
2023-02-24T03:26:30.766Z,8.50
2023-02-24T03:29:07.807Z,8.50
2023-02-24T03:31:45.984Z,8.50
2023-02-24T03:34:21.029Z,8.50
2023-02-24T03:36:51.054Z,8.50
2023-02-24T03:42:08.110Z,8.50
2023-02-24T03:52:21.711Z,8.50
2023-02-24T03:55:13.830Z,8.50
2023-02-24T03:57:59.772Z,8.50
2023-02-24T04:00:41.333Z,8.30
2023-02-24T04:03:26.456Z,8.50
2023-02-24T04:06:14.113Z,8.50
2023-02-24T04:08:52.104Z,8.50
2023-02-24T04:11:29.022Z,8.50
2023-02-24T04:14:06.390Z,8.50
2023-02-24T04:16:41.111Z,8.50
2023-02-24T04:19:13.982Z,8.50
2023-02-24T04:21:48.390Z,8.50
2023-02-24T04:24:28.926Z,8.50
2023-02-24T04:27:00.690Z,8.40
2023-02-24T04:29:36.667Z,8.40
2023-02-24T04:32:11.020Z,8.40
2023-02-24T04:34:41.029Z,8.40
2023-02-24T04:39:39.892Z,8.40
2023-02-24T04:52:15.277Z,8.30
2023-02-24T04:54:45.129Z,8.40
2023-02-24T05:12:10.843Z,8.20
2023-02-24T05:22:22.848Z,8.20
2023-02-24T05:27:22.267Z,8.20
2023-02-24T05:44:43.553Z,8.10
2023-02-24T05:52:11.222Z,8.10
2023-02-24T05:54:41.746Z,8.10
2023-02-24T05:57:12.780Z,8.20
2023-02-24T05:59:43.362Z,8.20
2023-02-24T06:02:13.707Z,8.10
2023-02-24T06:04:50.793Z,8.20
2023-02-24T06:07:22.796Z,8.20
2023-02-24T06:09:53.866Z,8.10
2023-02-24T06:12:24.644Z,8.10
2023-02-24T06:14:54.530Z,8.10
2023-02-24T06:17:24.272Z,8.10
2023-02-24T06:19:54.037Z,8.10
2023-02-24T06:22:24.474Z,8.10
2023-02-24T06:27:25.226Z,8.20
2023-02-24T06:29:57.576Z,8.10
2023-02-24T06:32:27.997Z,8.10
2023-02-24T06:34:57.500Z,8.10
2023-02-24T06:47:22.663Z,8.10
2023-02-24T06:54:52.324Z,8.20
2023-02-24T07:19:49.452Z,8.30
2023-02-24T07:27:28.871Z,8.40
2023-02-24T07:32:27.764Z,8.50
2023-02-24T07:34:57.355Z,8.50
2023-02-24T07:52:24.899Z,8.70
2023-02-24T07:57:25.103Z,8.80
2023-02-24T08:04:52.338Z,8.90
2023-02-24T08:07:24.600Z,8.90
2023-02-24T08:10:12.303Z,9.00
2023-02-24T08:12:43.604Z,9.00
2023-02-24T08:15:23.936Z,9.00
2023-02-24T08:17:59.796Z,9.10
2023-02-24T08:20:35.971Z,9.20
2023-02-24T08:23:08.578Z,9.20
2023-02-24T08:25:38.443Z,9.30
2023-02-24T08:28:11.822Z,9.40
2023-02-24T08:30:45.397Z,9.40
2023-02-24T08:33:20.623Z,9.60
2023-02-24T08:36:00.903Z,9.70
2023-02-24T08:38:39.796Z,9.80
2023-02-24T08:43:47.405Z,10.10
2023-02-24T08:46:21.219Z,10.20
2023-02-24T08:48:55.437Z,10.50
2023-02-24T08:51:29.650Z,10.70
2023-02-24T08:54:00.927Z,10.80
2023-02-24T08:56:34.590Z,10.90
2023-02-24T08:59:06.318Z,11.00
2023-02-24T09:01:37.317Z,11.00
2023-02-24T09:04:09.524Z,11.00
2023-02-24T09:06:44.854Z,11.10
2023-02-24T09:09:22.395Z,11.10
2023-02-24T09:11:56.003Z,11.20
2023-02-24T09:14:28.819Z,11.40
2023-02-24T09:17:07.142Z,11.40
2023-02-24T09:20:02.234Z,11.40
2023-02-24T09:22:32.941Z,11.50
2023-02-24T09:25:21.593Z,11.50
2023-02-24T09:27:55.621Z,11.50
2023-02-24T09:30:38.570Z,11.50
2023-02-24T09:33:20.858Z,11.50
2023-02-24T09:36:09.626Z,11.50
2023-02-24T09:41:56.882Z,11.50
2023-02-24T09:44:35.181Z,11.30
2023-02-24T09:47:13.515Z,11.50
2023-02-24T09:49:56.025Z,11.50
2023-02-24T09:52:39.681Z,11.50
2023-02-24T09:55:25.967Z,11.50
2023-02-24T09:58:20.111Z,11.50
2023-02-24T10:01:20.835Z,11.50
2023-02-24T10:04:18.289Z,11.60
2023-02-24T10:06:51.534Z,11.60
2023-02-24T10:09:26.933Z,11.60
2023-02-24T10:12:04.477Z,11.70
2023-02-24T10:14:44.580Z,11.70
2023-02-24T10:17:24.167Z,11.80
2023-02-24T10:20:00.493Z,10.20
2023-02-24T10:22:50.354Z,12.20
2023-02-24T10:25:39.359Z,12.40
2023-02-24T10:28:24.555Z,12.40
2023-02-24T10:31:10.181Z,12.50
2023-02-24T10:33:46.003Z,12.50
2023-02-24T10:36:22.202Z,12.50
2023-02-24T10:41:28.703Z,12.80
2023-02-24T10:43:58.782Z,12.80
2023-02-24T10:46:41.042Z,12.90
2023-02-24T10:49:16.698Z,13.00
2023-02-24T10:51:54.219Z,13.20
2023-02-24T10:54:44.802Z,13.30
2023-02-24T10:57:23.145Z,13.40
2023-02-24T11:00:15.371Z,13.50
2023-02-24T11:03:07.049Z,13.50
2023-02-24T11:06:05.887Z,13.50
2023-02-24T11:08:54.257Z,13.40
2023-02-24T11:11:30.749Z,13.30
2023-02-24T11:14:20.428Z,13.10
2023-02-24T11:17:08.583Z,12.90
2023-02-24T11:19:45.132Z,12.80
2023-02-24T11:22:21.290Z,12.90
2023-02-24T11:24:51.878Z,12.90
2023-02-24T11:27:24.391Z,13.10
2023-02-24T11:30:16.916Z,13.10
2023-02-24T11:33:03.870Z,13.10
2023-02-24T11:35:40.741Z,13.10
2023-02-24T11:38:27.874Z,13.10
2023-02-24T11:41:06.459Z,13.10
2023-02-24T11:43:41.307Z,13.00
2023-02-24T11:46:13.513Z,13.00
2023-02-24T11:48:48.518Z,13.00
2023-02-24T11:51:23.384Z,13.00
2023-02-24T11:53:57.642Z,13.10
2023-02-24T11:56:31.887Z,13.10
2023-02-24T11:59:05.078Z,13.10
2023-02-24T12:01:40.381Z,13.00
2023-02-24T12:04:20.060Z,13.00
2023-02-24T12:06:58.474Z,12.90
2023-02-24T12:09:41.623Z,12.80
2023-02-24T12:12:14.915Z,12.70
2023-02-24T12:14:49.601Z,12.80
2023-02-24T12:17:25.333Z,12.80
2023-02-24T12:20:01.590Z,12.90
2023-02-24T12:22:42.347Z,13.00
2023-02-24T12:25:16.697Z,13.00
2023-02-24T12:28:01.882Z,13.00
2023-02-24T12:30:49.728Z,13.20
2023-02-24T12:33:34.231Z,13.30
2023-02-24T12:36:13.278Z,13.50
2023-02-24T12:38:58.635Z,15.20
2023-02-24T12:41:41.710Z,13.70
2023-02-24T12:44:27.044Z,13.80
2023-02-24T12:47:04.847Z,13.80
2023-02-24T12:49:59.194Z,13.80
2023-02-24T12:52:35.678Z,13.70
2023-02-24T12:55:14.743Z,13.60
2023-02-24T12:57:56.603Z,13.50
2023-02-24T13:00:37.594Z,13.60
2023-02-24T13:03:22.926Z,13.80
2023-02-24T13:06:02.673Z,13.90
2023-02-24T13:08:44.211Z,14.10
2023-02-24T13:11:22.088Z,14.30
2023-02-24T13:14:01.374Z,14.20
2023-02-24T13:16:33.009Z,14.20
2023-02-24T13:19:22.212Z,14.10
2023-02-24T13:22:02.523Z,14.00
2023-02-24T13:27:22.424Z,13.60
2023-02-24T13:29:57.402Z,13.50
2023-02-24T13:32:31.676Z,13.40
2023-02-24T13:35:03.336Z,13.30
2023-02-24T13:37:36.432Z,13.30
2023-02-24T13:40:28.126Z,13.30
2023-02-24T13:43:04.882Z,13.40
2023-02-24T13:45:37.190Z,13.30
2023-02-24T13:48:26.722Z,13.20
2023-02-24T13:51:47.364Z,13.20
2023-02-24T13:54:33.149Z,13.10
2023-02-24T13:57:29.371Z,13.00
2023-02-24T14:00:11.376Z,12.90
2023-02-24T14:02:45.105Z,12.80
2023-02-24T14:05:23.031Z,12.80
2023-02-24T14:07:53.179Z,12.70
2023-02-24T14:13:06.736Z,12.70
2023-02-24T14:15:36.143Z,12.70
2023-02-24T14:18:07.298Z,12.60
2023-02-24T14:20:37.867Z,12.50
2023-02-24T14:23:23.226Z,12.40
2023-02-24T14:25:57.849Z,12.30
2023-02-24T14:28:31.142Z,12.30
2023-02-24T14:31:03.693Z,12.40
2023-02-24T14:33:38.543Z,12.40
2023-02-24T14:36:09.209Z,12.50
2023-02-24T14:38:39.903Z,12.60
2023-02-24T14:41:20.175Z,12.60
2023-02-24T14:48:52.738Z,12.60
2023-02-24T14:51:29.369Z,12.50
2023-02-24T14:54:02.850Z,12.50
2023-02-24T14:56:35.180Z,12.40
2023-02-24T14:59:09.478Z,12.20
2023-02-24T15:01:41.118Z,12.20
2023-02-24T15:04:22.163Z,12.00
2023-02-24T15:06:50.534Z,12.00
2023-02-24T15:09:23.650Z,11.90
2023-02-24T15:11:55.565Z,11.80
2023-02-24T15:17:00.336Z,11.70
2023-02-24T15:19:37.228Z,11.60
2023-02-24T15:22:19.140Z,11.60
2023-02-24T15:24:47.404Z,11.60
2023-02-24T15:27:26.737Z,11.60
2023-02-24T15:30:02.645Z,11.60
2023-02-24T15:32:34.638Z,11.60
2023-02-24T15:35:05.757Z,11.60
2023-02-24T15:37:42.483Z,11.60
2023-02-24T15:40:21.786Z,11.70
2023-02-24T15:42:55.847Z,11.60
2023-02-24T15:45:33.175Z,11.60
2023-02-24T15:48:03.128Z,11.60
2023-02-24T15:50:33.561Z,11.50
2023-02-24T15:53:05.429Z,11.50
2023-02-24T15:55:33.731Z,11.50
2023-02-24T15:58:04.428Z,11.40
2023-02-24T16:07:59.816Z,11.30
2023-02-24T16:10:31.094Z,11.20
2023-02-24T16:13:01.791Z,11.10
2023-02-24T16:15:35.581Z,11.10
2023-02-24T16:23:06.939Z,10.80
2023-02-24T16:25:44.607Z,10.70
2023-02-24T16:28:15.834Z,10.60
2023-02-24T16:33:15.206Z,10.40
2023-02-24T16:35:44.578Z,10.40
2023-02-24T16:38:15.297Z,10.30
2023-02-24T16:40:46.207Z,10.20
2023-02-24T16:43:15.253Z,10.20
2023-02-24T16:45:46.015Z,10.10
2023-02-24T16:48:20.897Z,10.00
2023-02-24T16:50:49.520Z,10.00
2023-02-24T16:53:24.033Z,9.90
2023-02-24T16:55:52.940Z,9.90
2023-02-24T16:58:23.242Z,9.80
2023-02-24T17:00:56.158Z,9.80
2023-02-24T17:03:28.132Z,9.70
2023-02-24T17:05:57.745Z,9.70
2023-02-24T17:08:27.683Z,9.60
2023-02-24T17:15:57.243Z,9.50
2023-02-24T17:18:26.991Z,9.50
2023-02-24T17:23:24.375Z,9.40
2023-02-24T17:25:57.928Z,9.10
2023-02-24T17:28:26.793Z,9.40
2023-02-24T17:48:23.048Z,9.30
2023-02-24T17:53:20.245Z,9.30
2023-02-24T17:58:33.270Z,9.20
2023-02-24T18:01:02.965Z,9.10
2023-02-24T18:06:01.552Z,8.90
2023-02-24T18:08:30.704Z,8.90
2023-02-24T18:13:32.355Z,8.70
2023-02-24T18:16:01.506Z,8.60
2023-02-24T18:21:02.809Z,8.40
2023-02-24T18:28:34.672Z,8.30
2023-02-24T18:31:10.370Z,8.20
2023-02-24T18:43:37.937Z,8.00
2023-02-24T18:46:09.371Z,7.90
2023-02-24T18:51:09.027Z,7.90
2023-02-24T18:56:09.203Z,7.80
2023-02-24T18:58:40.737Z,7.80
2023-02-24T19:01:14.793Z,7.80
2023-02-24T19:03:43.911Z,7.80
2023-02-24T19:06:13.132Z,7.70
2023-02-24T19:11:13.270Z,7.60
2023-02-24T19:13:43.748Z,7.60
2023-02-24T19:16:12.642Z,7.60
2023-02-24T19:18:41.004Z,7.60
2023-02-24T19:21:11.079Z,7.50
2023-02-24T19:23:39.595Z,7.50
2023-02-24T19:28:45.064Z,7.40
2023-02-24T19:31:16.237Z,7.40
2023-02-24T19:38:43.038Z,7.20
2023-02-24T19:46:14.584Z,7.10
2023-02-24T19:51:14.549Z,7.00
2023-02-24T20:01:14.721Z,6.90
2023-02-24T20:03:44.337Z,7.00
2023-02-24T20:06:18.949Z,7.00
2023-02-24T20:08:47.072Z,7.00
2023-02-24T20:11:15.524Z,7.00
2023-02-24T20:16:16.745Z,7.00
2023-02-24T20:21:16.008Z,7.00
2023-02-24T20:26:16.128Z,7.10
2023-02-24T20:31:18.517Z,7.00
2023-02-24T20:33:48.804Z,7.10
2023-02-24T20:36:21.003Z,7.10
2023-02-24T20:43:48.915Z,7.10
2023-02-24T20:46:24.070Z,7.10
2023-02-24T20:48:53.435Z,7.00
2023-02-24T20:56:27.990Z,7.00
2023-02-24T20:59:00.919Z,7.00
2023-02-24T21:01:32.242Z,7.00
2023-02-24T21:06:30.880Z,7.00
2023-02-24T21:08:59.717Z,7.00
2023-02-24T21:11:30.352Z,7.00
2023-02-24T21:16:30.352Z,7.00
2023-02-24T21:23:56.805Z,7.00
2023-02-24T21:28:57.897Z,6.90
2023-02-24T21:31:26.968Z,6.80
2023-02-24T21:33:57.292Z,6.90
2023-02-24T21:36:27.913Z,6.80
2023-02-24T21:43:55.760Z,6.80
2023-02-24T21:48:59.217Z,6.80
2023-02-24T21:51:29.385Z,6.80
2023-02-24T21:53:58.540Z,6.80
2023-02-24T21:56:29.582Z,6.80
2023-02-24T21:59:00.006Z,6.70
2023-02-24T22:01:31.811Z,6.70
2023-02-24T22:04:03.987Z,6.70
2023-02-24T22:06:34.373Z,6.70
2023-02-24T22:09:04.441Z,6.70
2023-02-24T22:11:35.704Z,6.70
2023-02-24T22:19:03.218Z,6.60
2023-02-24T22:21:31.757Z,6.50
2023-02-24T22:24:03.212Z,6.40
2023-02-24T22:29:02.187Z,6.30
2023-02-24T22:31:34.284Z,6.30
2023-02-24T22:34:05.339Z,6.20
2023-02-24T22:36:36.711Z,6.10
2023-02-24T22:39:06.701Z,6.10
2023-02-24T22:41:36.376Z,6.20
2023-02-24T22:44:06.419Z,6.20
2023-02-24T22:46:37.410Z,6.20
2023-02-24T22:49:07.831Z,6.20
2023-02-24T22:54:05.910Z,6.30
2023-02-24T23:01:33.970Z,6.30
2023-02-24T23:06:33.159Z,6.30
2023-02-24T23:09:03.158Z,6.30
2023-02-24T23:11:33.495Z,6.20
2023-02-24T23:14:05.886Z,6.20
2023-02-24T23:16:36.067Z,6.10
2023-02-24T23:19:07.283Z,6.00
2023-02-24T23:21:39.096Z,6.00
2023-02-24T23:24:10.806Z,5.80
2023-02-24T23:26:41.914Z,5.80
2023-02-24T23:29:11.547Z,5.70
2023-02-24T23:31:40.919Z,5.60
2023-02-24T23:36:43.491Z,5.50
2023-02-24T23:39:14.430Z,5.50
2023-02-24T23:44:14.274Z,5.50
2023-02-24T23:49:11.454Z,5.50
2023-02-24T23:51:48.421Z,5.60
